createdAt,value
2023-02-26T00:00:13.774Z,1.30
2023-02-26T00:02:41.153Z,1.17
2023-02-26T00:05:09.337Z,1.07
2023-02-26T00:07:36.742Z,1.20
2023-02-26T00:10:04.081Z,1.50
2023-02-26T00:12:31.586Z,1.43
2023-02-26T00:14:59.091Z,1.50
2023-02-26T00:17:26.281Z,1.37
2023-02-26T00:19:53.800Z,1.13
2023-02-26T00:22:22.039Z,1.23
2023-02-26T00:24:49.550Z,1.33
2023-02-26T00:27:20.186Z,1.20
2023-02-26T00:29:48.228Z,1.40
2023-02-26T00:32:18.086Z,1.13
2023-02-26T00:34:48.931Z,1.20
2023-02-26T00:37:19.166Z,1.13
2023-02-26T00:40:00.394Z,1.20
2023-02-26T00:42:27.883Z,1.20
2023-02-26T00:44:55.200Z,1.20
2023-02-26T00:47:31.489Z,1.20
2023-02-26T00:50:08.594Z,1.00
2023-02-26T00:52:54.499Z,1.07
2023-02-26T00:55:21.941Z,0.90
2023-02-26T00:57:49.216Z,1.10
2023-02-26T01:00:16.805Z,1.27
2023-02-26T01:02:44.366Z,1.20
2023-02-26T01:05:15.132Z,1.10
2023-02-26T01:07:54.455Z,1.10
2023-02-26T01:10:22.152Z,1.00
2023-02-26T01:12:49.842Z,0.90
2023-02-26T01:15:20.399Z,1.07
2023-02-26T01:18:02.633Z,1.00
2023-02-26T01:20:32.155Z,1.37
2023-02-26T01:23:05.165Z,1.10
2023-02-26T01:26:07.836Z,1.30
2023-02-26T01:28:35.139Z,1.17
2023-02-26T01:31:05.530Z,1.10
2023-02-26T01:33:44.714Z,0.93
2023-02-26T01:36:22.128Z,0.90
2023-02-26T01:39:03.277Z,1.00
2023-02-26T01:41:32.537Z,0.83
2023-02-26T01:44:09.153Z,1.10
2023-02-26T01:46:42.723Z,1.10
2023-02-26T01:49:14.381Z,1.17
2023-02-26T01:51:49.613Z,0.90
2023-02-26T01:54:20.050Z,1.10
2023-02-26T01:56:50.366Z,1.00
2023-02-26T01:59:24.297Z,1.20
2023-02-26T02:01:53.353Z,0.97
2023-02-26T02:04:21.042Z,0.93
2023-02-26T02:06:49.069Z,1.23
2023-02-26T02:09:16.562Z,1.20
2023-02-26T02:11:52.732Z,0.90
2023-02-26T02:14:25.177Z,1.10
2023-02-26T02:17:02.349Z,1.50
2023-02-26T02:19:40.202Z,1.23
2023-02-26T02:22:10.284Z,1.13
2023-02-26T02:24:56.052Z,1.00
2023-02-26T02:27:29.282Z,1.47
2023-02-26T02:30:11.914Z,1.10
2023-02-26T02:32:45.331Z,1.03
2023-02-26T02:35:21.682Z,0.97
2023-02-26T02:37:51.644Z,0.90
2023-02-26T02:40:24.573Z,1.10
2023-02-26T02:43:10.616Z,1.03
2023-02-26T02:45:49.300Z,0.80
2023-02-26T02:48:19.306Z,1.23
2023-02-26T02:50:49.670Z,1.03
2023-02-26T02:53:22.901Z,0.97
2023-02-26T02:55:54.238Z,1.00
2023-02-26T02:58:27.328Z,1.37
2023-02-26T03:00:57.090Z,1.37
2023-02-26T03:03:31.219Z,1.10
2023-02-26T03:05:58.506Z,1.33
2023-02-26T03:08:28.547Z,1.17
2023-02-26T03:10:55.700Z,0.97
2023-02-26T03:13:24.241Z,1.20
2023-02-26T03:15:57.387Z,1.20
2023-02-26T03:18:30.340Z,0.90
2023-02-26T03:21:06.939Z,1.00
2023-02-26T03:23:36.654Z,1.00
2023-02-26T03:26:03.791Z,1.00
2023-02-26T03:28:36.979Z,1.10
2023-02-26T03:31:15.945Z,1.17
2023-02-26T03:33:52.282Z,1.00
2023-02-26T03:36:22.240Z,1.23
2023-02-26T03:38:58.946Z,1.00
2023-02-26T03:41:31.801Z,1.20
2023-02-26T03:44:16.936Z,1.63
2023-02-26T03:46:46.398Z,1.10
2023-02-26T03:49:15.738Z,1.00
2023-02-26T03:51:43.845Z,1.10
2023-02-26T03:54:16.322Z,1.00
2023-02-26T03:56:46.707Z,1.20
2023-02-26T03:59:15.633Z,1.60
2023-02-26T04:01:45.390Z,0.90
2023-02-26T04:04:23.755Z,1.17
2023-02-26T04:06:53.577Z,1.17
2023-02-26T04:09:21.760Z,0.90
2023-02-26T04:11:50.004Z,1.20
2023-02-26T04:14:17.216Z,1.27
2023-02-26T04:16:44.894Z,1.10
2023-02-26T04:19:12.353Z,1.30
2023-02-26T04:21:39.538Z,0.90
2023-02-26T04:24:06.844Z,1.37
2023-02-26T04:26:34.420Z,1.00
2023-02-26T04:29:01.636Z,1.30
2023-02-26T04:31:29.926Z,0.70
2023-02-26T04:33:57.263Z,1.40
2023-02-26T04:36:24.781Z,1.20
2023-02-26T04:38:52.188Z,1.07
2023-02-26T04:41:21.555Z,1.13
2023-02-26T04:43:48.821Z,1.30
2023-02-26T04:46:16.069Z,1.40
2023-02-26T04:48:43.581Z,1.00
2023-02-26T04:51:11.194Z,1.13
2023-02-26T04:53:38.512Z,1.00
2023-02-26T04:56:06.529Z,1.30
2023-02-26T04:58:35.558Z,1.00
2023-02-26T05:01:08.038Z,1.10
2023-02-26T05:03:36.136Z,1.10
2023-02-26T05:06:03.328Z,1.07
2023-02-26T05:08:30.508Z,0.87
2023-02-26T05:10:58.077Z,1.10
2023-02-26T05:13:25.407Z,1.30
2023-02-26T05:15:54.527Z,0.80
2023-02-26T05:18:25.054Z,1.20
2023-02-26T05:20:56.795Z,1.47
2023-02-26T05:23:24.155Z,1.00
2023-02-26T05:25:51.357Z,2.10
2023-02-26T05:28:18.737Z,1.50
2023-02-26T05:30:46.198Z,1.30
2023-02-26T05:33:13.605Z,1.13
2023-02-26T05:35:41.258Z,1.07
2023-02-26T05:38:08.466Z,1.20
2023-02-26T05:40:38.455Z,1.03
2023-02-26T05:43:05.616Z,1.30
2023-02-26T05:45:32.768Z,1.40
2023-02-26T05:48:00.037Z,1.50
2023-02-26T05:50:27.328Z,1.20
2023-02-26T05:52:54.673Z,1.10
2023-02-26T05:55:21.900Z,1.20
2023-02-26T05:57:51.858Z,1.23
2023-02-26T06:00:19.384Z,1.10
2023-02-26T06:02:46.645Z,1.33
2023-02-26T06:05:16.676Z,1.23
2023-02-26T06:07:44.031Z,1.10
2023-02-26T06:10:11.978Z,1.27
2023-02-26T06:12:40.092Z,1.07
2023-02-26T06:15:07.788Z,1.23
2023-02-26T06:17:35.171Z,1.30
2023-02-26T06:20:03.503Z,1.37
2023-02-26T06:22:30.951Z,1.20
2023-02-26T06:24:58.167Z,0.93
2023-02-26T06:27:25.989Z,1.30
2023-02-26T06:29:53.332Z,1.00
2023-02-26T06:32:20.630Z,1.10
2023-02-26T06:34:47.941Z,1.23
2023-02-26T06:37:16.378Z,1.10
2023-02-26T06:39:46.500Z,0.90
2023-02-26T06:42:13.826Z,1.07
2023-02-26T06:44:41.002Z,1.00
2023-02-26T06:47:08.197Z,1.10
2023-02-26T06:49:35.429Z,1.00
2023-02-26T06:52:02.651Z,1.00
2023-02-26T06:54:32.798Z,1.10
2023-02-26T06:57:03.332Z,1.23
2023-02-26T06:59:30.989Z,1.23
2023-02-26T07:01:58.278Z,1.30
2023-02-26T07:04:25.876Z,1.13
2023-02-26T07:06:53.338Z,1.17
2023-02-26T07:09:20.676Z,0.90
2023-02-26T07:11:47.918Z,1.13
2023-02-26T07:14:15.140Z,1.37
2023-02-26T07:16:42.378Z,1.13
2023-02-26T07:19:09.743Z,1.30
2023-02-26T07:21:36.997Z,1.10
2023-02-26T07:24:07.050Z,1.30
2023-02-26T07:26:34.267Z,1.70
2023-02-26T07:29:01.490Z,1.33
2023-02-26T07:31:28.732Z,1.53
2023-02-26T07:33:56.205Z,1.20
2023-02-26T07:36:23.679Z,1.40
2023-02-26T07:38:53.299Z,1.40
2023-02-26T07:41:20.692Z,1.30
2023-02-26T07:43:50.422Z,1.37
2023-02-26T07:46:19.733Z,1.50
2023-02-26T07:48:46.946Z,1.30
2023-02-26T07:51:14.122Z,1.27
2023-02-26T07:53:41.290Z,1.87
2023-02-26T07:56:08.596Z,2.10
2023-02-26T07:58:35.829Z,1.50
2023-02-26T08:01:07.076Z,1.87
2023-02-26T08:03:34.423Z,1.93
2023-02-26T08:06:01.773Z,2.07
2023-02-26T08:08:29.076Z,1.90
2023-02-26T08:10:56.956Z,1.60
2023-02-26T08:13:24.205Z,1.97
2023-02-26T08:15:51.540Z,1.87
2023-02-26T08:18:21.432Z,1.73
2023-02-26T08:20:48.599Z,2.00
2023-02-26T08:23:15.774Z,1.30
2023-02-26T08:25:43.966Z,1.80
2023-02-26T08:28:11.242Z,2.07
2023-02-26T08:30:38.445Z,2.30
2023-02-26T08:33:05.817Z,2.73
2023-02-26T08:35:33.114Z,2.07
2023-02-26T08:38:00.545Z,2.43
2023-02-26T08:40:27.736Z,2.80
2023-02-26T08:42:54.935Z,2.23
2023-02-26T08:45:22.145Z,2.53
2023-02-26T08:47:56.717Z,2.23
2023-02-26T08:50:24.989Z,1.90
2023-02-26T08:52:52.223Z,2.40
2023-02-26T08:55:19.555Z,2.57
2023-02-26T08:57:46.889Z,1.83
2023-02-26T09:00:16.658Z,2.20
2023-02-26T09:02:43.935Z,1.93
2023-02-26T09:05:12.218Z,1.93
2023-02-26T09:07:39.813Z,1.90
2023-02-26T09:10:07.697Z,2.33
2023-02-26T09:12:36.998Z,1.80
2023-02-26T09:15:07.656Z,2.30
2023-02-26T09:17:35.240Z,3.37
2023-02-26T09:20:02.470Z,2.90
2023-02-26T09:22:29.630Z,2.30
2023-02-26T09:24:57.437Z,2.07
2023-02-26T09:27:25.159Z,2.57
2023-02-26T09:29:52.415Z,1.63
2023-02-26T09:32:19.698Z,2.10
2023-02-26T09:34:47.066Z,1.63
2023-02-26T09:37:14.351Z,1.60
2023-02-26T09:39:41.703Z,1.40
2023-02-26T09:42:27.908Z,1.23
2023-02-26T09:45:00.124Z,1.50
2023-02-26T09:47:29.624Z,1.30
2023-02-26T09:49:59.618Z,1.20
2023-02-26T09:52:30.652Z,1.50
2023-02-26T09:55:01.047Z,1.60
2023-02-26T09:57:30.806Z,1.60
2023-02-26T10:00:00.294Z,1.47
2023-02-26T10:02:53.869Z,1.50
2023-02-26T10:05:23.832Z,1.40
2023-02-26T10:08:08.954Z,1.33
2023-02-26T10:10:42.402Z,1.83
2023-02-26T10:13:19.434Z,1.67
2023-02-26T10:15:47.044Z,1.53
2023-02-26T10:18:17.592Z,1.57
2023-02-26T10:21:03.654Z,1.03
2023-02-26T10:23:48.950Z,1.57
2023-02-26T10:26:19.522Z,1.60
2023-02-26T10:28:48.593Z,1.53
2023-02-26T10:31:15.890Z,1.73
2023-02-26T10:34:01.259Z,1.90
2023-02-26T10:36:40.965Z,2.33
2023-02-26T10:39:23.335Z,1.67
2023-02-26T10:41:51.396Z,2.20
2023-02-26T10:44:35.544Z,2.30
2023-02-26T10:47:09.541Z,1.70
2023-02-26T10:49:54.461Z,2.90
2023-02-26T10:52:24.499Z,3.23
2023-02-26T10:55:15.256Z,3.13
2023-02-26T10:57:44.953Z,1.67
2023-02-26T11:00:16.871Z,2.00
2023-02-26T11:02:46.507Z,1.80
2023-02-26T11:05:18.747Z,1.67
2023-02-26T11:07:48.054Z,2.23
2023-02-26T11:10:17.065Z,1.87
2023-02-26T11:12:44.501Z,2.20
2023-02-26T11:15:15.779Z,2.07
2023-02-26T11:17:43.238Z,1.50
2023-02-26T11:20:29.136Z,2.00
2023-02-26T11:22:58.727Z,1.90
2023-02-26T11:25:28.309Z,1.60
2023-02-26T11:28:06.048Z,1.73
2023-02-26T11:30:37.249Z,1.70
2023-02-26T11:33:07.577Z,1.03
2023-02-26T11:35:34.853Z,1.20
2023-02-26T11:38:03.420Z,1.67
2023-02-26T11:40:39.293Z,1.57
2023-02-26T11:43:13.569Z,2.40
2023-02-26T11:45:42.817Z,1.33
2023-02-26T11:48:14.137Z,2.50
2023-02-26T11:50:47.112Z,1.50
2023-02-26T11:53:19.132Z,3.03
2023-02-26T11:55:48.734Z,2.80
2023-02-26T11:58:18.499Z,1.90
2023-02-26T12:00:46.601Z,2.20
2023-02-26T12:03:19.104Z,1.73
2023-02-26T12:05:46.911Z,1.77
2023-02-26T12:08:20.222Z,1.60
2023-02-26T12:10:59.041Z,2.47
2023-02-26T12:13:50.385Z,1.30
2023-02-26T12:16:36.266Z,1.30
2023-02-26T12:19:06.374Z,1.30
2023-02-26T12:21:51.827Z,1.10
2023-02-26T12:24:21.853Z,1.40
2023-02-26T12:27:15.166Z,1.20
2023-02-26T12:29:42.348Z,1.27
2023-02-26T12:32:16.442Z,1.60
2023-02-26T12:34:49.964Z,1.73
2023-02-26T12:37:23.573Z,1.57
2023-02-26T12:39:58.759Z,1.37
2023-02-26T12:42:38.186Z,1.53
2023-02-26T12:45:14.582Z,1.50
2023-02-26T12:47:48.415Z,1.40
2023-02-26T12:50:21.792Z,1.30
2023-02-26T12:53:01.062Z,1.50
2023-02-26T12:55:38.023Z,1.50
2023-02-26T12:58:14.160Z,1.60
2023-02-26T13:00:41.346Z,1.33
2023-02-26T13:03:11.474Z,1.47
2023-02-26T13:05:38.948Z,1.77
2023-02-26T13:08:24.525Z,1.40
2023-02-26T13:10:57.404Z,1.17
2023-02-26T13:13:38.354Z,1.37
2023-02-26T13:16:14.837Z,1.20
2023-02-26T13:18:42.095Z,1.37
2023-02-26T13:21:13.440Z,1.70
2023-02-26T13:24:01.519Z,1.70
2023-02-26T13:26:29.966Z,1.53
2023-02-26T13:28:59.948Z,1.50
2023-02-26T13:31:39.630Z,1.83
2023-02-26T13:34:33.459Z,1.70
2023-02-26T13:37:01.123Z,1.20
2023-02-26T13:39:37.664Z,1.63
2023-02-26T13:42:16.341Z,1.60
2023-02-26T13:44:50.382Z,1.60
2023-02-26T13:47:34.821Z,1.97
2023-02-26T13:50:02.244Z,1.43
2023-02-26T13:52:30.582Z,1.07
2023-02-26T13:54:59.409Z,0.90
2023-02-26T13:57:35.597Z,1.17
2023-02-26T14:00:04.977Z,1.10
2023-02-26T14:02:36.919Z,1.50
2023-02-26T14:05:08.127Z,1.10
2023-02-26T14:07:54.286Z,1.30
2023-02-26T14:10:26.421Z,1.00
2023-02-26T14:13:23.137Z,0.87
2023-02-26T14:16:16.639Z,0.80
2023-02-26T14:18:54.754Z,0.90
2023-02-26T14:21:29.736Z,1.27
2023-02-26T14:24:26.814Z,1.20
2023-02-26T14:27:14.297Z,1.10
2023-02-26T14:29:43.427Z,1.10
2023-02-26T14:32:10.751Z,1.10
2023-02-26T14:34:43.861Z,1.37
2023-02-26T14:37:13.615Z,1.40
2023-02-26T14:39:49.579Z,1.03
2023-02-26T14:42:22.463Z,1.63
2023-02-26T14:44:53.742Z,2.10
2023-02-26T14:47:21.646Z,2.50
2023-02-26T14:49:49.774Z,1.90
2023-02-26T14:52:29.736Z,2.40
2023-02-26T14:54:57.022Z,2.27
2023-02-26T14:57:42.493Z,4.97
2023-02-26T15:00:12.113Z,1.67
2023-02-26T15:02:42.444Z,1.30
2023-02-26T15:05:28.776Z,1.50
2023-02-26T15:07:59.209Z,2.07
2023-02-26T15:10:40.990Z,1.30
2023-02-26T15:13:27.105Z,1.50
2023-02-26T15:16:01.224Z,1.63
2023-02-26T15:18:34.504Z,1.73
2023-02-26T15:21:04.477Z,1.53
2023-02-26T15:23:40.690Z,2.13
2023-02-26T15:26:09.227Z,2.00
2023-02-26T15:28:40.998Z,2.47
2023-02-26T15:31:11.233Z,2.37
2023-02-26T15:33:40.156Z,2.60
2023-02-26T15:36:13.934Z,2.47
2023-02-26T15:38:42.977Z,2.03
2023-02-26T15:41:10.510Z,2.43
2023-02-26T15:43:37.819Z,3.10
2023-02-26T15:46:07.028Z,2.30
2023-02-26T15:48:38.583Z,2.60
2023-02-26T15:51:07.455Z,2.60
2023-02-26T15:53:41.269Z,2.50
2023-02-26T15:56:16.918Z,2.77
2023-02-26T15:58:45.916Z,2.27
2023-02-26T16:01:24.369Z,2.80
2023-02-26T16:03:53.110Z,2.30
2023-02-26T16:06:25.033Z,2.40
2023-02-26T16:08:52.528Z,4.07
2023-02-26T16:11:20.705Z,3.70
2023-02-26T16:13:48.654Z,3.20
2023-02-26T16:16:22.782Z,3.57
2023-02-26T16:18:50.179Z,3.90
2023-02-26T16:21:28.657Z,6.83
2023-02-26T16:23:57.858Z,23.30
2023-02-26T16:26:30.777Z,5.07
2023-02-26T16:29:01.257Z,4.10
2023-02-26T16:31:30.882Z,3.27
2023-02-26T16:33:59.744Z,3.57
2023-02-26T16:36:30.894Z,3.53
2023-02-26T16:38:58.224Z,4.07
2023-02-26T16:41:27.166Z,4.43
2023-02-26T16:43:57.821Z,4.43
2023-02-26T16:46:27.912Z,4.30
2023-02-26T16:48:57.057Z,4.17
2023-02-26T16:51:25.694Z,3.80
2023-02-26T16:53:58.113Z,5.23
2023-02-26T16:56:28.598Z,5.30
2023-02-26T16:59:17.245Z,3.63
2023-02-26T17:01:50.625Z,3.40
2023-02-26T17:04:18.966Z,3.83
2023-02-26T17:06:47.886Z,4.20
2023-02-26T17:09:34.828Z,2.90
2023-02-26T17:12:13.796Z,3.47
2023-02-26T17:14:42.825Z,4.07
2023-02-26T17:17:10.408Z,3.60
2023-02-26T17:19:38.251Z,4.33
2023-02-26T17:22:06.376Z,4.73
2023-02-26T17:24:36.111Z,6.43
2023-02-26T17:27:04.385Z,3.93
2023-02-26T17:29:33.549Z,3.20
2023-02-26T17:32:01.057Z,4.87
2023-02-26T17:34:28.384Z,3.00
2023-02-26T17:36:57.011Z,3.73
2023-02-26T17:39:24.353Z,3.57
2023-02-26T17:41:51.664Z,2.67
2023-02-26T17:44:19.804Z,3.80
2023-02-26T17:46:47.191Z,3.83
2023-02-26T17:49:14.693Z,3.67
2023-02-26T17:51:42.011Z,2.80
2023-02-26T17:54:09.737Z,3.53
2023-02-26T17:56:37.448Z,3.47
2023-02-26T17:59:05.380Z,5.37
2023-02-26T18:01:32.673Z,4.63
2023-02-26T18:04:01.475Z,4.93
2023-02-26T18:06:31.151Z,5.53
2023-02-26T18:08:59.540Z,7.10
2023-02-26T18:11:27.291Z,9.50
2023-02-26T18:13:55.574Z,10.73
2023-02-26T18:16:25.223Z,10.17
2023-02-26T18:18:54.130Z,9.80
2023-02-26T18:21:21.443Z,8.60
2023-02-26T18:23:48.652Z,6.70
2023-02-26T18:26:16.987Z,5.77
2023-02-26T18:28:44.574Z,6.30
2023-02-26T18:31:13.057Z,6.10
2023-02-26T18:33:41.413Z,10.00
2023-02-26T18:36:09.082Z,14.50
2023-02-26T18:38:36.430Z,9.27
2023-02-26T18:41:03.665Z,8.47
2023-02-26T18:43:30.972Z,7.97
2023-02-26T18:46:01.469Z,8.33
2023-02-26T18:48:29.300Z,6.93
2023-02-26T18:50:56.675Z,6.40
2023-02-26T18:53:24.951Z,5.93
2023-02-26T18:55:53.107Z,4.23
2023-02-26T18:58:20.843Z,4.53
2023-02-26T19:00:48.088Z,4.60
2023-02-26T19:03:15.336Z,4.17
2023-02-26T19:05:42.568Z,4.57
2023-02-26T19:08:10.304Z,3.90
2023-02-26T19:10:37.968Z,3.50
2023-02-26T19:13:05.543Z,3.90
2023-02-26T19:15:32.707Z,4.17
2023-02-26T19:17:59.959Z,3.83
2023-02-26T19:20:27.189Z,4.20
2023-02-26T19:22:54.460Z,4.80
2023-02-26T19:25:24.165Z,5.17
2023-02-26T19:27:53.246Z,4.37
2023-02-26T19:30:21.284Z,3.87
2023-02-26T19:32:48.639Z,4.13
2023-02-26T19:35:16.053Z,6.30
2023-02-26T19:37:43.291Z,6.13
2023-02-26T19:40:16.658Z,6.63
2023-02-26T19:42:44.210Z,6.23
2023-02-26T19:45:11.603Z,4.37
2023-02-26T19:47:38.901Z,4.97
2023-02-26T19:50:06.773Z,4.13
2023-02-26T19:52:34.092Z,4.13
2023-02-26T19:55:01.504Z,3.70
2023-02-26T19:57:29.260Z,3.80
2023-02-26T19:59:56.580Z,3.20
2023-02-26T20:02:24.135Z,3.97
2023-02-26T20:04:51.396Z,3.83
2023-02-26T20:07:18.739Z,4.20
2023-02-26T20:09:46.787Z,4.03
2023-02-26T20:12:15.386Z,3.83
2023-02-26T20:14:43.645Z,4.00
2023-02-26T20:17:10.903Z,3.97
2023-02-26T20:19:38.164Z,4.40
2023-02-26T20:22:05.472Z,3.30
2023-02-26T20:24:35.502Z,3.10
2023-02-26T20:27:02.744Z,2.77
2023-02-26T20:29:30.483Z,2.90
2023-02-26T20:31:59.196Z,3.07
2023-02-26T20:34:26.487Z,3.53
2023-02-26T20:36:55.553Z,3.73
2023-02-26T20:39:23.634Z,4.30
2023-02-26T20:41:50.921Z,5.10
2023-02-26T20:44:18.716Z,4.70
2023-02-26T20:46:45.994Z,2.83
2023-02-26T20:49:13.384Z,3.27
2023-02-26T20:51:41.752Z,3.10
2023-02-26T20:54:09.737Z,3.47
2023-02-26T20:56:37.000Z,3.43
2023-02-26T20:59:04.270Z,3.57
2023-02-26T21:01:35.771Z,4.67
2023-02-26T21:04:07.716Z,3.70
2023-02-26T21:06:35.524Z,5.27
2023-02-26T21:09:03.048Z,3.80
2023-02-26T21:11:31.231Z,3.07
2023-02-26T21:14:02.158Z,3.60
2023-02-26T21:16:29.664Z,3.03
2023-02-26T21:18:58.606Z,3.50
2023-02-26T21:21:25.836Z,3.30
2023-02-26T21:23:53.291Z,3.77
2023-02-26T21:26:23.980Z,3.60
2023-02-26T21:28:51.340Z,6.23
2023-02-26T21:31:19.920Z,5.57
2023-02-26T21:33:47.154Z,4.73
2023-02-26T21:36:14.518Z,4.63
2023-02-26T21:38:42.269Z,6.37
2023-02-26T21:41:09.619Z,5.67
2023-02-26T21:43:36.889Z,4.53
2023-02-26T21:46:04.521Z,4.37
2023-02-26T21:48:31.779Z,2.73
2023-02-26T21:50:59.770Z,3.00
2023-02-26T21:53:27.304Z,3.73
2023-02-26T21:55:55.277Z,3.10
2023-02-26T21:58:23.142Z,3.03
2023-02-26T22:00:50.389Z,2.73
2023-02-26T22:03:17.978Z,3.07
2023-02-26T22:05:45.445Z,2.80
2023-02-26T22:08:12.793Z,3.30
2023-02-26T22:10:40.131Z,3.00
2023-02-26T22:13:07.284Z,3.03
2023-02-26T22:15:34.560Z,3.30
2023-02-26T22:18:01.763Z,3.27
2023-02-26T22:20:30.249Z,2.70
2023-02-26T22:22:58.094Z,3.03
2023-02-26T22:25:25.395Z,3.73
2023-02-26T22:27:52.809Z,2.57
2023-02-26T22:30:20.051Z,3.10
2023-02-26T22:32:47.349Z,3.00
2023-02-26T22:35:14.592Z,2.77
2023-02-26T22:37:42.379Z,2.53
2023-02-26T22:40:12.609Z,1.90
2023-02-26T22:42:40.434Z,2.70
2023-02-26T22:45:08.654Z,2.20
2023-02-26T22:47:35.989Z,2.47
2023-02-26T22:50:03.639Z,2.30
2023-02-26T22:52:30.985Z,2.60
2023-02-26T22:54:58.202Z,2.60
2023-02-26T22:57:25.388Z,2.43
2023-02-26T22:59:52.640Z,2.40
2023-02-26T23:02:19.860Z,2.20
2023-02-26T23:04:47.095Z,2.53
2023-02-26T23:07:14.302Z,2.67
2023-02-26T23:09:41.875Z,3.40
2023-02-26T23:12:09.286Z,3.67
2023-02-26T23:14:36.480Z,2.87
2023-02-26T23:17:04.298Z,3.57
2023-02-26T23:19:31.613Z,3.00
2023-02-26T23:21:59.019Z,2.33
2023-02-26T23:24:26.263Z,2.87
2023-02-26T23:26:53.557Z,2.70
2023-02-26T23:29:20.768Z,2.93
2023-02-26T23:31:48.154Z,2.43
2023-02-26T23:34:15.906Z,3.00
2023-02-26T23:36:43.170Z,3.30
2023-02-26T23:39:10.652Z,2.70
2023-02-26T23:41:38.072Z,2.97
2023-02-26T23:44:05.421Z,2.43
2023-02-26T23:46:32.711Z,2.30
2023-02-26T23:48:59.975Z,2.83
2023-02-26T23:51:27.512Z,2.70
2023-02-26T23:53:54.890Z,2.67
2023-02-26T23:56:22.081Z,2.60
2023-02-26T23:58:49.311Z,2.60
